sensor_id;sensor_type;location;lat;lon;timestamp;pressure;altitude;pressure_sealevel;temperature;humidity
70127;BME280;57491;42.694;23.314;2022-09-02T00:01:21;94791.50;;;21.85;66.70
70127;BME280;57491;42.694;23.314;2022-09-02T00:03:50;94786.81;;;21.92;66.26
70127;BME280;57491;42.694;23.314;2022-09-02T00:06:17;94789.44;;;21.92;66.29
70127;BME280;57491;42.694;23.314;2022-09-02T00:08:44;94786.25;;;21.90;66.70
70127;BME280;57491;42.694;23.314;2022-09-02T00:11:12;94787.13;;;21.96;66.43
70127;BME280;57491;42.694;23.314;2022-09-02T00:13:41;94790.31;;;22.03;66.31
70127;BME280;57491;42.694;23.314;2022-09-02T00:16:08;94784.81;;;22.09;65.90
70127;BME280;57491;42.694;23.314;2022-09-02T00:18:36;94795.66;;;22.13;65.84
70127;BME280;57491;42.694;23.314;2022-09-02T00:21:03;94794.34;;;22.15;65.85
70127;BME280;57491;42.694;23.314;2022-09-02T00:23:30;94793.84;;;22.18;65.72
70127;BME280;57491;42.694;23.314;2022-09-02T00:25:57;94796.69;;;22.07;66.23
70127;BME280;57491;42.694;23.314;2022-09-02T00:28:24;94800.66;;;22.04;66.05
70127;BME280;57491;42.694;23.314;2022-09-02T00:30:53;94808.81;;;21.98;66.47
70127;BME280;57491;42.694;23.314;2022-09-02T00:33:20;94807.66;;;21.84;67.07
70127;BME280;57491;42.694;23.314;2022-09-02T00:35:46;94816.84;;;21.76;67.10
70127;BME280;57491;42.694;23.314;2022-09-02T00:38:14;94823.47;;;21.73;66.54
70127;BME280;57491;42.694;23.314;2022-09-02T00:40:43;94821.06;;;21.72;66.59
70127;BME280;57491;42.694;23.314;2022-09-02T00:43:10;94819.03;;;21.84;66.10
70127;BME280;57491;42.694;23.314;2022-09-02T00:45:37;94814.56;;;21.90;65.63
70127;BME280;57491;42.694;23.314;2022-09-02T00:48:06;94817.31;;;22.00;65.27
70127;BME280;57491;42.694;23.314;2022-09-02T00:50:33;94809.97;;;22.12;64.63
70127;BME280;57491;42.694;23.314;2022-09-02T00:53:03;94819.56;;;22.23;64.42
70127;BME280;57491;42.694;23.314;2022-09-02T00:55:32;94825.97;;;22.32;63.64
70127;BME280;57491;42.694;23.314;2022-09-02T00:58:02;94823.03;;;22.29;63.66
70127;BME280;57491;42.694;23.314;2022-09-02T01:00:32;94830.69;;;22.25;63.78
70127;BME280;57491;42.694;23.314;2022-09-02T01:03:03;94824.59;;;22.24;62.89
70127;BME280;57491;42.694;23.314;2022-09-02T01:05:34;94823.25;;;22.22;62.98
70127;BME280;57491;42.694;23.314;2022-09-02T01:08:02;94821.63;;;22.16;62.63
70127;BME280;57491;42.694;23.314;2022-09-02T01:10:32;94820.06;;;22.15;62.56
70127;BME280;57491;42.694;23.314;2022-09-02T01:13:01;94826.66;;;22.12;62.85
70127;BME280;57491;42.694;23.314;2022-09-02T01:15:31;94831.69;;;22.14;62.62
70127;BME280;57491;42.694;23.314;2022-09-02T01:18:00;94837.00;;;22.14;62.98
70127;BME280;57491;42.694;23.314;2022-09-02T01:20:28;94835.19;;;22.19;63.04
70127;BME280;57491;42.694;23.314;2022-09-02T01:22:56;94834.06;;;22.15;63.61
70127;BME280;57491;42.694;23.314;2022-09-02T01:25:24;94835.66;;;22.16;63.42
70127;BME280;57491;42.694;23.314;2022-09-02T01:27:52;94834.63;;;22.17;62.87
70127;BME280;57491;42.694;23.314;2022-09-02T01:30:20;94831.97;;;22.17;63.22
70127;BME280;57491;42.694;23.314;2022-09-02T01:32:47;94833.56;;;22.18;64.02
70127;BME280;57491;42.694;23.314;2022-09-02T01:35:14;94830.38;;;22.16;64.27
70127;BME280;57491;42.694;23.314;2022-09-02T01:37:41;94821.09;;;22.14;64.73
70127;BME280;57491;42.694;23.314;2022-09-02T01:40:11;94822.16;;;22.13;64.99
70127;BME280;57491;42.694;23.314;2022-09-02T01:42:39;94827.97;;;22.10;65.41
70127;BME280;57491;42.694;23.314;2022-09-02T01:45:07;94817.88;;;22.07;65.58
70127;BME280;57491;42.694;23.314;2022-09-02T01:47:34;94798.81;;;22.05;66.34
70127;BME280;57491;42.694;23.314;2022-09-02T01:50:02;94782.66;;;22.01;65.39
70127;BME280;57491;42.694;23.314;2022-09-02T01:52:29;94766.69;;;21.91;65.38
70127;BME280;57491;42.694;23.314;2022-09-02T01:54:56;94762.63;;;21.78;64.13
70127;BME280;57491;42.694;23.314;2022-09-02T01:57:25;94758.56;;;21.66;63.95
70127;BME280;57491;42.694;23.314;2022-09-02T01:59:52;94755.03;;;21.50;64.64
70127;BME280;57491;42.694;23.314;2022-09-02T02:02:20;94750.66;;;21.29;66.13
70127;BME280;57491;42.694;23.314;2022-09-02T02:04:47;94754.88;;;21.30;66.96
70127;BME280;57491;42.694;23.314;2022-09-02T02:07:15;94755.38;;;21.27;67.12
70127;BME280;57491;42.694;23.314;2022-09-02T02:09:42;94756.19;;;21.27;67.03
70127;BME280;57491;42.694;23.314;2022-09-02T02:12:09;94750.56;;;21.19;67.26
70127;BME280;57491;42.694;23.314;2022-09-02T02:14:38;94750.31;;;21.20;66.88
70127;BME280;57491;42.694;23.314;2022-09-02T02:17:05;94748.22;;;21.22;66.62
70127;BME280;57491;42.694;23.314;2022-09-02T02:19:32;94749.06;;;21.28;66.95
70127;BME280;57491;42.694;23.314;2022-09-02T02:21:59;94762.03;;;21.34;66.73
70127;BME280;57491;42.694;23.314;2022-09-02T02:24:26;94761.28;;;21.34;66.92
70127;BME280;57491;42.694;23.314;2022-09-02T02:26:53;94766.06;;;21.37;67.31
70127;BME280;57491;42.694;23.314;2022-09-02T02:29:20;94765.81;;;21.44;67.09
70127;BME280;57491;42.694;23.314;2022-09-02T02:31:49;94763.94;;;21.39;67.34
70127;BME280;57491;42.694;23.314;2022-09-02T02:34:16;94770.78;;;21.35;67.48
70127;BME280;57491;42.694;23.314;2022-09-02T02:36:43;94776.38;;;21.39;67.52
70127;BME280;57491;42.694;23.314;2022-09-02T02:39:11;94778.00;;;21.45;67.43
70127;BME280;57491;42.694;23.314;2022-09-02T02:41:38;94781.16;;;21.42;67.38
70127;BME280;57491;42.694;23.314;2022-09-02T02:44:06;94776.34;;;21.33;67.08
70127;BME280;57491;42.694;23.314;2022-09-02T02:46:33;94783.72;;;21.31;67.06
70127;BME280;57491;42.694;23.314;2022-09-02T02:49:01;94789.06;;;21.36;67.03
70127;BME280;57491;42.694;23.314;2022-09-02T02:51:28;94781.97;;;21.42;66.52
70127;BME280;57491;42.694;23.314;2022-09-02T02:53:55;94784.59;;;21.42;66.54
70127;BME280;57491;42.694;23.314;2022-09-02T02:56:22;94779.59;;;21.46;66.42
70127;BME280;57491;42.694;23.314;2022-09-02T02:58:49;94775.63;;;21.43;66.81
70127;BME280;57491;42.694;23.314;2022-09-02T03:01:16;94774.00;;;21.37;67.15
70127;BME280;57491;42.694;23.314;2022-09-02T03:03:43;94778.66;;;21.30;67.35
70127;BME280;57491;42.694;23.314;2022-09-02T03:06:11;94787.69;;;21.29;67.80
70127;BME280;57491;42.694;23.314;2022-09-02T03:08:38;94790.09;;;21.35;67.61
70127;BME280;57491;42.694;23.314;2022-09-02T03:11:05;94789.75;;;21.27;67.84
70127;BME280;57491;42.694;23.314;2022-09-02T03:13:32;94782.63;;;21.27;67.42
70127;BME280;57491;42.694;23.314;2022-09-02T03:15:59;94779.69;;;21.24;67.64
70127;BME280;57491;42.694;23.314;2022-09-02T03:18:26;94784.44;;;21.22;67.85
70127;BME280;57491;42.694;23.314;2022-09-02T03:20:53;94777.34;;;21.27;67.19
70127;BME280;57491;42.694;23.314;2022-09-02T03:23:21;94781.81;;;21.27;67.27
70127;BME280;57491;42.694;23.314;2022-09-02T03:25:48;94777.06;;;21.24;67.46
70127;BME280;57491;42.694;23.314;2022-09-02T03:28:15;94782.81;;;21.21;67.50
70127;BME280;57491;42.694;23.314;2022-09-02T03:30:43;94781.03;;;21.26;67.11
70127;BME280;57491;42.694;23.314;2022-09-02T03:33:10;94776.00;;;21.25;67.28
70127;BME280;57491;42.694;23.314;2022-09-02T03:35:38;94788.09;;;21.16;67.51
70127;BME280;57491;42.694;23.314;2022-09-02T03:38:05;94783.06;;;21.14;67.79
70127;BME280;57491;42.694;23.314;2022-09-02T03:40:34;94792.81;;;21.14;67.85
70127;BME280;57491;42.694;23.314;2022-09-02T03:43:01;94798.66;;;21.16;68.00
70127;BME280;57491;42.694;23.314;2022-09-02T03:45:28;94800.19;;;21.12;68.00
70127;BME280;57491;42.694;23.314;2022-09-02T03:47:55;94793.00;;;21.07;68.45
70127;BME280;57491;42.694;23.314;2022-09-02T03:50:24;94807.28;;;21.06;68.26
70127;BME280;57491;42.694;23.314;2022-09-02T03:52:51;94812.56;;;21.06;68.35
70127;BME280;57491;42.694;23.314;2022-09-02T03:55:19;94818.38;;;21.08;68.37
70127;BME280;57491;42.694;23.314;2022-09-02T03:57:47;94813.09;;;21.08;68.37
70127;BME280;57491;42.694;23.314;2022-09-02T04:00:16;94828.47;;;21.11;68.42
70127;BME280;57491;42.694;23.314;2022-09-02T04:02:43;94834.63;;;21.17;68.08
70127;BME280;57491;42.694;23.314;2022-09-02T04:05:10;94830.41;;;21.16;68.23
70127;BME280;57491;42.694;23.314;2022-09-02T04:07:38;94831.19;;;21.16;68.34
70127;BME280;57491;42.694;23.314;2022-09-02T04:10:05;94828.56;;;21.16;68.36
70127;BME280;57491;42.694;23.314;2022-09-02T04:12:33;94840.69;;;21.17;68.37
70127;BME280;57491;42.694;23.314;2022-09-02T04:15:02;94842.31;;;21.18;68.36
70127;BME280;57491;42.694;23.314;2022-09-02T04:17:29;94848.69;;;21.22;68.45
70127;BME280;57491;42.694;23.314;2022-09-02T04:19:56;94851.09;;;21.24;68.48
70127;BME280;57491;42.694;23.314;2022-09-02T04:22:22;94852.72;;;21.30;68.21
70127;BME280;57491;42.694;23.314;2022-09-02T04:24:49;94846.66;;;21.29;68.44
70127;BME280;57491;42.694;23.314;2022-09-02T04:27:16;94849.03;;;21.31;68.19
70127;BME280;57491;42.694;23.314;2022-09-02T04:29:43;94847.97;;;21.32;68.16
70127;BME280;57491;42.694;23.314;2022-09-02T04:32:11;94848.97;;;21.26;68.52
70127;BME280;57491;42.694;23.314;2022-09-02T04:34:38;94850.34;;;21.28;68.30
70127;BME280;57491;42.694;23.314;2022-09-02T04:37:05;94854.81;;;21.28;68.27
70127;BME280;57491;42.694;23.314;2022-09-02T04:39:32;94859.56;;;21.26;68.45
70127;BME280;57491;42.694;23.314;2022-09-02T04:41:59;94861.66;;;21.24;68.43
70127;BME280;57491;42.694;23.314;2022-09-02T04:44:26;94866.44;;;21.27;68.61
70127;BME280;57491;42.694;23.314;2022-09-02T04:46:53;94868.03;;;21.28;68.65
70127;BME280;57491;42.694;23.314;2022-09-02T04:49:21;94862.53;;;21.29;68.50
70127;BME280;57491;42.694;23.314;2022-09-02T04:51:48;94866.25;;;21.33;68.38
70127;BME280;57491;42.694;23.314;2022-09-02T04:54:16;94861.44;;;21.30;68.49
70127;BME280;57491;42.694;23.314;2022-09-02T04:56:42;94874.88;;;21.24;68.47
70127;BME280;57491;42.694;23.314;2022-09-02T04:59:09;94868.50;;;21.20;68.65
70127;BME280;57491;42.694;23.314;2022-09-02T05:01:36;94860.75;;;21.13;68.99
70127;BME280;57491;42.694;23.314;2022-09-02T05:04:04;94868.50;;;21.20;68.88
70127;BME280;57491;42.694;23.314;2022-09-02T05:06:33;94873.22;;;21.18;68.67
70127;BME280;57491;42.694;23.314;2022-09-02T05:09:00;94873.53;;;21.21;68.37
70127;BME280;57491;42.694;23.314;2022-09-02T05:11:29;94870.94;;;21.26;68.40
70127;BME280;57491;42.694;23.314;2022-09-02T05:13:59;94872.81;;;21.31;68.44
70127;BME280;57491;42.694;23.314;2022-09-02T05:16:26;94872.41;;;21.44;68.14
70127;BME280;57491;42.694;23.314;2022-09-02T05:18:54;94879.91;;;21.52;68.17
70127;BME280;57491;42.694;23.314;2022-09-02T05:21:21;94876.75;;;21.55;68.33
70127;BME280;57491;42.694;23.314;2022-09-02T05:23:50;94881.50;;;21.53;68.28
70127;BME280;57491;42.694;23.314;2022-09-02T05:26:17;94885.69;;;21.49;68.75
70127;BME280;57491;42.694;23.314;2022-09-02T05:28:44;94886.25;;;21.51;68.69
70127;BME280;57491;42.694;23.314;2022-09-02T05:31:12;94877.28;;;21.52;69.08
70127;BME280;57491;42.694;23.314;2022-09-02T05:33:39;94890.28;;;21.59;69.25
70127;BME280;57491;42.694;23.314;2022-09-02T05:36:07;94886.88;;;21.63;69.20
70127;BME280;57491;42.694;23.314;2022-09-02T05:38:36;94886.97;;;21.73;69.11
70127;BME280;57491;42.694;23.314;2022-09-02T05:41:05;94887.50;;;21.75;69.21
70127;BME280;57491;42.694;23.314;2022-09-02T05:43:33;94883.34;;;21.85;68.13
70127;BME280;57491;42.694;23.314;2022-09-02T05:46:02;94872.00;;;21.89;67.61
70127;BME280;57491;42.694;23.314;2022-09-02T05:48:31;94870.78;;;21.97;66.42
70127;BME280;57491;42.694;23.314;2022-09-02T05:51:15;94872.88;;;21.95;65.89
70127;BME280;57491;42.694;23.314;2022-09-02T05:53:42;94867.31;;;21.96;65.05
70127;BME280;57491;42.694;23.314;2022-09-02T05:56:10;94865.25;;;22.03;65.15
70127;BME280;57491;42.694;23.314;2022-09-02T05:58:37;94863.94;;;22.06;65.43
70127;BME280;57491;42.694;23.314;2022-09-02T06:01:08;94870.06;;;22.11;65.44
70127;BME280;57491;42.694;23.314;2022-09-02T06:03:35;94865.03;;;22.10;65.25
70127;BME280;57491;42.694;23.314;2022-09-02T06:06:02;94867.72;;;22.15;64.84
70127;BME280;57491;42.694;23.314;2022-09-02T06:08:29;94869.28;;;22.16;64.77
70127;BME280;57491;42.694;23.314;2022-09-02T06:10:57;94868.50;;;22.15;65.21
70127;BME280;57491;42.694;23.314;2022-09-02T06:13:27;94874.34;;;22.17;64.45
70127;BME280;57491;42.694;23.314;2022-09-02T06:15:54;94873.03;;;22.15;64.53
70127;BME280;57491;42.694;23.314;2022-09-02T06:18:22;94877.63;;;21.93;65.42
70127;BME280;57491;42.694;23.314;2022-09-02T06:20:49;94876.16;;;21.80;66.01
70127;BME280;57491;42.694;23.314;2022-09-02T06:23:16;94875.41;;;21.85;65.97
70127;BME280;57491;42.694;23.314;2022-09-02T06:25:44;94872.06;;;21.94;65.98
70127;BME280;57491;42.694;23.314;2022-09-02T06:28:12;94876.31;;;21.95;65.55
70127;BME280;57491;42.694;23.314;2022-09-02T06:30:41;94886.41;;;22.03;65.44
70127;BME280;57491;42.694;23.314;2022-09-02T06:33:09;94887.78;;;22.06;65.19
70127;BME280;57491;42.694;23.314;2022-09-02T06:35:36;94882.53;;;22.11;65.03
70127;BME280;57491;42.694;23.314;2022-09-02T06:38:04;94883.06;;;22.13;64.92
70127;BME280;57491;42.694;23.314;2022-09-02T06:40:31;94886.22;;;22.10;65.44
70127;BME280;57491;42.694;23.314;2022-09-02T06:42:58;94888.22;;;21.98;65.96
70127;BME280;57491;42.694;23.314;2022-09-02T06:45:25;94886.47;;;22.08;65.54
70127;BME280;57491;42.694;23.314;2022-09-02T06:47:55;94893.59;;;22.08;65.68
70127;BME280;57491;42.694;23.314;2022-09-02T06:50:22;94893.44;;;21.88;65.74
70127;BME280;57491;42.694;23.314;2022-09-02T06:52:49;94900.03;;;21.85;66.42
70127;BME280;57491;42.694;23.314;2022-09-02T06:55:16;94906.44;;;21.62;67.05
70127;BME280;57491;42.694;23.314;2022-09-02T06:57:42;94899.03;;;21.59;67.20
70127;BME280;57491;42.694;23.314;2022-09-02T07:00:10;94909.03;;;21.57;67.56
70127;BME280;57491;42.694;23.314;2022-09-02T07:02:37;94905.06;;;21.55;67.66
70127;BME280;57491;42.694;23.314;2022-09-02T07:05:06;94903.00;;;21.62;67.17
70127;BME280;57491;42.694;23.314;2022-09-02T07:07:35;94904.88;;;21.66;67.41
70127;BME280;57491;42.694;23.314;2022-09-02T07:10:02;94914.72;;;21.71;67.29
70127;BME280;57491;42.694;23.314;2022-09-02T07:12:30;94909.75;;;21.74;67.27
70127;BME280;57491;42.694;23.314;2022-09-02T07:14:57;94913.38;;;21.68;67.51
70127;BME280;57491;42.694;23.314;2022-09-02T07:17:26;94913.28;;;21.90;66.98
70127;BME280;57491;42.694;23.314;2022-09-02T07:19:53;94917.72;;;22.06;66.30
70127;BME280;57491;42.694;23.314;2022-09-02T07:22:25;94918.03;;;22.20;66.03
70127;BME280;57491;42.694;23.314;2022-09-02T07:24:52;94919.50;;;22.38;65.70
70127;BME280;57491;42.694;23.314;2022-09-02T07:27:19;94916.97;;;22.58;65.15
70127;BME280;57491;42.694;23.314;2022-09-02T07:29:46;94919.75;;;22.78;64.62
70127;BME280;57491;42.694;23.314;2022-09-02T07:32:13;94918.47;;;22.91;63.71
70127;BME280;57491;42.694;23.314;2022-09-02T07:34:40;94922.78;;;23.07;63.57
70127;BME280;57491;42.694;23.314;2022-09-02T07:37:07;94914.84;;;23.17;63.51
70127;BME280;57491;42.694;23.314;2022-09-02T07:39:35;94920.69;;;23.14;62.04
70127;BME280;57491;42.694;23.314;2022-09-02T07:42:02;94917.25;;;23.13;62.84
70127;BME280;57491;42.694;23.314;2022-09-02T07:44:30;94922.00;;;23.17;62.26
70127;BME280;57491;42.694;23.314;2022-09-02T07:46:57;94912.75;;;23.14;61.97
70127;BME280;57491;42.694;23.314;2022-09-02T07:49:24;94911.47;;;23.32;61.66
70127;BME280;57491;42.694;23.314;2022-09-02T07:51:52;94909.66;;;23.47;61.51
70127;BME280;57491;42.694;23.314;2022-09-02T07:54:20;94928.50;;;23.51;60.48
70127;BME280;57491;42.694;23.314;2022-09-02T07:56:49;94914.97;;;23.52;60.19
70127;BME280;57491;42.694;23.314;2022-09-02T07:59:16;94922.41;;;23.61;60.31
70127;BME280;57491;42.694;23.314;2022-09-02T08:01:44;94920.53;;;23.56;60.34
70127;BME280;57491;42.694;23.314;2022-09-02T08:04:12;94930.03;;;23.42;60.60
70127;BME280;57491;42.694;23.314;2022-09-02T08:06:40;94927.97;;;23.54;60.05
70127;BME280;57491;42.694;23.314;2022-09-02T08:09:07;94933.00;;;23.45;60.17
70127;BME280;57491;42.694;23.314;2022-09-02T08:11:36;94937.22;;;23.41;60.18
70127;BME280;57491;42.694;23.314;2022-09-02T08:14:06;94942.50;;;23.31;60.39
70127;BME280;57491;42.694;23.314;2022-09-02T08:16:34;94944.09;;;23.37;59.83
70127;BME280;57491;42.694;23.314;2022-09-02T08:19:02;94947.28;;;23.39;59.93
70127;BME280;57491;42.694;23.314;2022-09-02T08:21:28;94938.75;;;23.22;59.90
70127;BME280;57491;42.694;23.314;2022-09-02T08:23:55;94937.41;;;23.25;59.94
70127;BME280;57491;42.694;23.314;2022-09-02T08:26:23;94940.34;;;23.28;59.71
70127;BME280;57491;42.694;23.314;2022-09-02T08:28:52;94931.91;;;23.41;59.76
70127;BME280;57491;42.694;23.314;2022-09-02T08:31:21;94940.88;;;23.30;59.29
70127;BME280;57491;42.694;23.314;2022-09-02T08:33:47;94934.50;;;23.21;59.70
70127;BME280;57491;42.694;23.314;2022-09-02T08:36:15;94947.19;;;23.09;59.85
70127;BME280;57491;42.694;23.314;2022-09-02T08:38:42;94939.78;;;23.16;59.84
70127;BME280;57491;42.694;23.314;2022-09-02T08:41:16;94939.25;;;23.14;59.64
70127;BME280;57491;42.694;23.314;2022-09-02T08:43:45;94935.56;;;23.25;59.38
70127;BME280;57491;42.694;23.314;2022-09-02T08:46:13;94930.81;;;23.32;59.32
70127;BME280;57491;42.694;23.314;2022-09-02T08:48:44;94927.06;;;23.18;59.59
70127;BME280;57491;42.694;23.314;2022-09-02T08:51:15;94924.72;;;23.32;59.59
70127;BME280;57491;42.694;23.314;2022-09-02T08:53:45;94928.50;;;23.46;59.29
70127;BME280;57491;42.694;23.314;2022-09-02T08:56:15;94923.47;;;23.65;59.22
70127;BME280;57491;42.694;23.314;2022-09-02T08:58:43;94919.78;;;23.81;58.58
70127;BME280;57491;42.694;23.314;2022-09-02T09:01:13;94922.44;;;24.01;57.30
70127;BME280;57491;42.694;23.314;2022-09-02T09:03:49;94916.31;;;24.11;56.70
70127;BME280;57491;42.694;23.314;2022-09-02T09:06:24;94921.91;;;24.24;55.85
70127;BME280;57491;42.694;23.314;2022-09-02T09:08:55;94920.31;;;24.33;55.50
70127;BME280;57491;42.694;23.314;2022-09-02T09:11:27;94912.59;;;24.42;55.57
70127;BME280;57491;42.694;23.314;2022-09-02T09:14:01;94912.28;;;24.59;55.14
70127;BME280;57491;42.694;23.314;2022-09-02T09:16:37;94913.59;;;24.71;54.89
70127;BME280;57491;42.694;23.314;2022-09-02T09:19:09;94907.72;;;24.79;54.31
70127;BME280;57491;42.694;23.314;2022-09-02T09:21:37;94908.22;;;24.97;54.40
70127;BME280;57491;42.694;23.314;2022-09-02T09:24:06;94904.16;;;25.14;53.79
70127;BME280;57491;42.694;23.314;2022-09-02T09:26:34;94907.56;;;25.25;53.22
70127;BME280;57491;42.694;23.314;2022-09-02T09:29:03;94906.38;;;25.46;53.12
70127;BME280;57491;42.694;23.314;2022-09-02T09:31:31;94900.94;;;25.66;52.28
70127;BME280;57491;42.694;23.314;2022-09-02T09:34:00;94902.84;;;25.95;51.82
70127;BME280;57491;42.694;23.314;2022-09-02T09:36:44;94903.41;;;26.26;51.16
70127;BME280;57491;42.694;23.314;2022-09-02T09:39:16;94893.63;;;26.45;49.88
70127;BME280;57491;42.694;23.314;2022-09-02T09:41:43;94892.63;;;26.64;49.63
70127;BME280;57491;42.694;23.314;2022-09-02T09:44:13;94891.06;;;26.87;48.78
70127;BME280;57491;42.694;23.314;2022-09-02T09:46:59;94888.88;;;27.13;48.28
70127;BME280;57491;42.694;23.314;2022-09-02T09:49:25;94889.56;;;27.24;47.81
70127;BME280;57491;42.694;23.314;2022-09-02T09:51:54;94888.59;;;27.33;47.77
70127;BME280;57491;42.694;23.314;2022-09-02T09:54:24;94893.38;;;27.36;47.42
70127;BME280;57491;42.694;23.314;2022-09-02T09:56:51;94907.22;;;27.20;47.31
70127;BME280;57491;42.694;23.314;2022-09-02T09:59:34;94896.16;;;27.07;48.38
70127;BME280;57491;42.694;23.314;2022-09-02T10:02:02;94905.88;;;26.98;48.25
70127;BME280;57491;42.694;23.314;2022-09-02T10:04:30;94906.41;;;26.72;48.67
70127;BME280;57491;42.694;23.314;2022-09-02T10:06:59;94909.50;;;26.60;48.63
70127;BME280;57491;42.694;23.314;2022-09-02T10:09:33;94898.25;;;26.63;48.64
70127;BME280;57491;42.694;23.314;2022-09-02T10:12:00;94906.81;;;26.60;48.06
70127;BME280;57491;42.694;23.314;2022-09-02T10:14:30;94895.69;;;26.53;48.56
70127;BME280;57491;42.694;23.314;2022-09-02T10:17:01;94893.00;;;26.53;48.64
70127;BME280;57491;42.694;23.314;2022-09-02T10:19:32;94891.91;;;26.59;48.98
70127;BME280;57491;42.694;23.314;2022-09-02T10:24:58;94895.53;;;26.68;48.36
70127;BME280;57491;42.694;23.314;2022-09-02T10:27:31;94904.50;;;26.77;48.39
70127;BME280;57491;42.694;23.314;2022-09-02T10:30:02;94889.28;;;26.78;48.10
70127;BME280;57491;42.694;23.314;2022-09-02T10:32:37;94893.81;;;26.77;47.76
70127;BME280;57491;42.694;23.314;2022-09-02T10:35:10;94895.91;;;26.85;47.89
70127;BME280;57491;42.694;23.314;2022-09-02T10:37:42;94895.19;;;26.98;47.00
70127;BME280;57491;42.694;23.314;2022-09-02T10:40:13;94894.44;;;27.17;47.19
70127;BME280;57491;42.694;23.314;2022-09-02T10:42:43;94895.38;;;27.26;47.27
70127;BME280;57491;42.694;23.314;2022-09-02T10:45:14;94890.06;;;27.44;46.98
70127;BME280;57491;42.694;23.314;2022-09-02T10:47:43;94894.44;;;27.59;46.13
70127;BME280;57491;42.694;23.314;2022-09-02T10:50:16;94890.34;;;27.80;45.80
70127;BME280;57491;42.694;23.314;2022-09-02T10:52:50;94893.06;;;28.13;44.82
70127;BME280;57491;42.694;23.314;2022-09-02T10:55:24;94902.72;;;28.27;44.18
70127;BME280;57491;42.694;23.314;2022-09-02T10:57:53;94890.28;;;28.50;43.54
70127;BME280;57491;42.694;23.314;2022-09-02T11:00:24;94894.44;;;28.56;43.40
70127;BME280;57491;42.694;23.314;2022-09-02T11:02:52;94890.97;;;28.56;43.18
70127;BME280;57491;42.694;23.314;2022-09-02T11:05:40;94884.06;;;28.82;43.26
70127;BME280;57491;42.694;23.314;2022-09-02T11:08:09;94880.34;;;29.46;41.98
70127;BME280;57491;42.694;23.314;2022-09-02T11:10:40;94874.94;;;29.96;40.60
70127;BME280;57491;42.694;23.314;2022-09-02T11:13:13;94875.84;;;30.44;39.70
70127;BME280;57491;42.694;23.314;2022-09-02T11:15:42;94870.31;;;30.72;38.46
70127;BME280;57491;42.694;23.314;2022-09-02T11:18:12;94870.69;;;30.79;37.81
70127;BME280;57491;42.694;23.314;2022-09-02T11:20:44;94875.34;;;30.65;38.14
70127;BME280;57491;42.694;23.314;2022-09-02T11:23:14;94872.84;;;31.16;37.19
70127;BME280;57491;42.694;23.314;2022-09-02T11:25:45;94871.22;;;31.63;36.95
70127;BME280;57491;42.694;23.314;2022-09-02T11:28:20;94873.25;;;32.01;35.69
70127;BME280;57491;42.694;23.314;2022-09-02T11:30:50;94872.19;;;32.57;34.87
70127;BME280;57491;42.694;23.314;2022-09-02T11:33:19;94870.28;;;33.04;34.07
70127;BME280;57491;42.694;23.314;2022-09-02T11:35:48;94865.03;;;33.37;33.21
70127;BME280;57491;42.694;23.314;2022-09-02T11:38:20;94850.59;;;33.83;32.31
70127;BME280;57491;42.694;23.314;2022-09-02T11:40:57;94853.72;;;34.38;31.82
70127;BME280;57491;42.694;23.314;2022-09-02T11:43:30;94844.09;;;34.86;31.14
70127;BME280;57491;42.694;23.314;2022-09-02T11:46:05;94839.22;;;34.43;31.33
70127;BME280;57491;42.694;23.314;2022-09-02T11:48:51;94841.13;;;34.10;31.49
70127;BME280;57491;42.694;23.314;2022-09-02T11:54:10;94829.91;;;33.25;32.80
70127;BME280;57491;42.694;23.314;2022-09-02T11:56:59;94831.22;;;32.89;33.70
70127;BME280;57491;42.694;23.314;2022-09-02T12:03:08;94834.31;;;32.24;35.78
70127;BME280;57491;42.694;23.314;2022-09-02T12:06:06;94840.53;;;31.73;36.41
70127;BME280;57491;42.694;23.314;2022-09-02T12:09:05;94843.50;;;31.20;37.59
70127;BME280;57491;42.694;23.314;2022-09-02T12:11:51;94834.06;;;30.83;37.98
70127;BME280;57491;42.694;23.314;2022-09-02T12:21:03;94836.63;;;30.48;39.24
70127;BME280;57491;42.694;23.314;2022-09-02T12:24:09;94827.16;;;30.20;39.83
70127;BME280;57491;42.694;23.314;2022-09-02T12:27:02;94818.41;;;29.84;40.30
70127;BME280;57491;42.694;23.314;2022-09-02T12:29:30;94820.47;;;29.64;40.77
70127;BME280;57491;42.694;23.314;2022-09-02T12:31:58;94818.41;;;29.61;40.96
70127;BME280;57491;42.694;23.314;2022-09-02T12:37:08;94804.97;;;29.03;42.01
70127;BME280;57491;42.694;23.314;2022-09-02T12:39:55;94804.50;;;28.74;42.33
70127;BME280;57491;42.694;23.314;2022-09-02T12:42:28;94797.88;;;28.58;43.12
70127;BME280;57491;42.694;23.314;2022-09-02T12:45:02;94805.38;;;28.56;42.85
70127;BME280;57491;42.694;23.314;2022-09-02T12:47:34;94803.31;;;28.39;43.50
70127;BME280;57491;42.694;23.314;2022-09-02T12:50:03;94790.03;;;28.48;43.26
70127;BME280;57491;42.694;23.314;2022-09-02T12:52:43;94798.75;;;28.53;43.13
70127;BME280;57491;42.694;23.314;2022-09-02T12:55:15;94797.44;;;28.51;43.14
70127;BME280;57491;42.694;23.314;2022-09-02T12:57:44;94794.09;;;28.45;43.51
70127;BME280;57491;42.694;23.314;2022-09-02T13:00:13;94794.91;;;28.32;43.37
70127;BME280;57491;42.694;23.314;2022-09-02T13:02:43;94798.56;;;28.22;44.30
70127;BME280;57491;42.694;23.314;2022-09-02T13:05:17;94789.13;;;28.25;44.01
70127;BME280;57491;42.694;23.314;2022-09-02T13:07:54;94783.78;;;28.25;44.01
70127;BME280;57491;42.694;23.314;2022-09-02T13:10:36;94779.50;;;28.10;44.90
70127;BME280;57491;42.694;23.314;2022-09-02T13:13:16;94786.41;;;27.98;45.11
70127;BME280;57491;42.694;23.314;2022-09-02T13:16:02;94781.91;;;27.79;45.29
70127;BME280;57491;42.694;23.314;2022-09-02T13:18:42;94791.19;;;27.68;45.84
70127;BME280;57491;42.694;23.314;2022-09-02T13:21:22;94792.50;;;27.52;45.42